createdAt,value
2023-04-24T00:01:50.153Z,34.75
2023-04-24T00:04:19.259Z,30.73
2023-04-24T00:06:50.587Z,37.78
2023-04-24T00:09:17.459Z,36.92
2023-04-24T00:11:44.259Z,33.95
2023-04-24T00:14:11.230Z,28.17
2023-04-24T00:16:38.206Z,31.58
2023-04-24T00:19:06.990Z,31.13
2023-04-24T00:21:33.856Z,30.88
2023-04-24T00:24:00.904Z,33.20
2023-04-24T00:26:27.852Z,31.25
2023-04-24T00:28:54.761Z,31.05
2023-04-24T00:31:21.696Z,36.42
2023-04-24T00:33:48.485Z,34.72
2023-04-24T00:36:15.502Z,37.13
2023-04-24T00:38:42.305Z,33.70
2023-04-24T00:41:09.111Z,36.20
2023-04-24T00:43:36.110Z,35.42
2023-04-24T00:46:03.288Z,33.75
2023-04-24T00:48:30.606Z,34.63
2023-04-24T00:50:58.376Z,34.88
2023-04-24T00:53:25.234Z,39.08
2023-04-24T00:55:52.432Z,35.85
2023-04-24T00:58:20.028Z,33.33
2023-04-24T01:00:47.328Z,37.17
2023-04-24T01:03:15.357Z,32.55
2023-04-24T01:05:43.014Z,34.38
2023-04-24T01:08:09.949Z,31.83
2023-04-24T01:10:38.901Z,32.35
2023-04-24T01:13:06.427Z,33.60
2023-04-24T01:15:33.507Z,32.38
2023-04-24T01:18:00.531Z,32.90
2023-04-24T01:20:27.921Z,35.28
2023-04-24T01:22:57.571Z,33.35
2023-04-24T01:25:26.928Z,35.20
2023-04-24T01:27:53.806Z,37.08
2023-04-24T01:30:20.667Z,32.80
2023-04-24T01:32:47.735Z,31.17
2023-04-24T01:35:15.491Z,32.67
2023-04-24T01:37:42.302Z,33.35
2023-04-24T01:40:09.490Z,26.90
2023-04-24T01:42:37.069Z,24.17
2023-04-24T01:45:06.240Z,20.15
2023-04-24T01:47:33.763Z,22.25
2023-04-24T01:50:00.720Z,24.33
2023-04-24T01:52:28.189Z,22.50
2023-04-24T01:54:56.907Z,22.10
2023-04-24T01:57:23.969Z,19.00
2023-04-24T01:59:51.852Z,20.60
2023-04-24T02:02:19.398Z,21.00
2023-04-24T02:04:46.218Z,20.50
2023-04-24T02:07:13.381Z,22.75
2023-04-24T02:09:40.396Z,18.63
2023-04-24T02:12:07.397Z,22.63
2023-04-24T02:14:34.398Z,26.48
2023-04-24T02:17:01.757Z,20.83
2023-04-24T02:19:28.819Z,19.33
2023-04-24T02:21:55.664Z,20.23
2023-04-24T02:24:22.521Z,17.35
2023-04-24T02:26:49.761Z,22.58
2023-04-24T02:29:16.820Z,24.83
2023-04-24T02:31:43.737Z,24.00
2023-04-24T02:34:10.633Z,20.13
2023-04-24T02:36:37.496Z,21.17
2023-04-24T02:39:04.749Z,20.40
2023-04-24T02:41:33.693Z,24.40
2023-04-24T02:44:00.763Z,20.35
2023-04-24T02:46:28.051Z,23.10
2023-04-24T02:48:55.017Z,23.35
2023-04-24T02:51:21.922Z,23.35
2023-04-24T02:53:48.775Z,21.90
2023-04-24T02:56:15.694Z,22.23
2023-04-24T02:58:43.436Z,22.60
2023-04-24T03:01:13.434Z,20.88
2023-04-24T03:03:41.245Z,21.40
2023-04-24T03:06:09.101Z,21.52
2023-04-24T03:08:36.552Z,23.10
2023-04-24T03:11:03.469Z,19.75
2023-04-24T03:13:30.471Z,22.60
2023-04-24T03:15:57.346Z,21.85
2023-04-24T03:18:24.239Z,21.40
2023-04-24T03:20:51.225Z,22.98
2023-04-24T03:23:18.028Z,25.52
2023-04-24T03:25:45.096Z,25.98
2023-04-24T03:28:11.902Z,26.77
2023-04-24T03:30:38.723Z,27.63
2023-04-24T03:33:05.641Z,28.23
2023-04-24T03:35:32.708Z,32.28
2023-04-24T03:37:59.599Z,30.23
2023-04-24T03:40:26.395Z,30.30
2023-04-24T03:42:53.318Z,29.35
2023-04-24T03:45:20.250Z,29.27
2023-04-24T03:47:47.220Z,28.65
2023-04-24T03:50:14.055Z,25.50
2023-04-24T03:52:40.848Z,21.60
2023-04-24T03:55:08.320Z,17.85
2023-04-24T03:57:35.148Z,18.75
2023-04-24T04:00:07.360Z,16.92
2023-04-24T04:02:34.263Z,14.13
2023-04-24T04:05:01.313Z,13.98
2023-04-24T04:07:28.279Z,10.20
2023-04-24T04:09:55.095Z,12.88
2023-04-24T04:12:21.974Z,15.68
2023-04-24T04:14:48.807Z,17.58
2023-04-24T04:17:16.179Z,15.38
2023-04-24T04:19:43.362Z,16.10
2023-04-24T04:22:10.320Z,14.40
2023-04-24T04:24:39.106Z,13.40
2023-04-24T04:27:06.549Z,14.15
2023-04-24T04:29:33.708Z,13.93
2023-04-24T04:32:00.631Z,16.73
2023-04-24T04:34:27.547Z,13.30
2023-04-24T04:36:54.393Z,19.80
2023-04-24T04:39:21.326Z,17.85
2023-04-24T04:41:50.295Z,23.13
2023-04-24T04:44:17.338Z,20.00
2023-04-24T04:46:45.311Z,20.27
2023-04-24T04:49:12.211Z,21.17
2023-04-24T04:51:40.684Z,18.98
2023-04-24T04:54:08.733Z,24.23
2023-04-24T04:56:35.676Z,31.48
2023-04-24T04:59:02.476Z,34.30
2023-04-24T05:01:29.345Z,31.77
2023-04-24T05:03:56.620Z,34.45
2023-04-24T05:06:24.604Z,33.58
2023-04-24T05:08:52.285Z,34.28
2023-04-24T05:11:19.381Z,36.53
2023-04-24T05:13:46.221Z,41.35
2023-04-24T05:16:13.266Z,36.05
2023-04-24T05:18:40.287Z,37.80
2023-04-24T05:21:07.320Z,27.55
2023-04-24T05:23:34.233Z,28.60
2023-04-24T05:26:01.145Z,33.08
2023-04-24T05:28:29.530Z,27.27
2023-04-24T05:30:57.203Z,22.77
2023-04-24T05:33:24.170Z,24.17
2023-04-24T05:35:51.032Z,28.42
2023-04-24T05:38:20.662Z,19.75
2023-04-24T05:40:47.633Z,22.83
2023-04-24T05:43:14.879Z,16.27
2023-04-24T05:45:41.802Z,27.20
2023-04-24T05:48:08.651Z,24.13
2023-04-24T05:50:36.968Z,21.67
2023-04-24T05:53:04.777Z,25.83
2023-04-24T05:55:32.634Z,27.38
2023-04-24T05:57:59.818Z,23.50
2023-04-24T06:00:27.917Z,26.83
2023-04-24T06:02:55.424Z,28.00
2023-04-24T06:05:22.935Z,25.67
2023-04-24T06:07:50.278Z,22.98
2023-04-24T06:10:17.322Z,34.90
2023-04-24T06:12:44.372Z,30.30
2023-04-24T06:15:11.927Z,35.10
2023-04-24T06:17:38.999Z,33.85
2023-04-24T06:20:07.810Z,34.95
2023-04-24T06:22:34.784Z,35.30
2023-04-24T06:25:02.596Z,34.63
2023-04-24T06:27:29.433Z,38.40
2023-04-24T06:29:56.478Z,34.75
2023-04-24T06:32:26.723Z,39.88
2023-04-24T06:34:54.162Z,39.88
2023-04-24T06:37:24.580Z,42.75
2023-04-24T06:39:51.438Z,40.75
2023-04-24T06:42:18.394Z,39.92
2023-04-24T06:44:46.057Z,37.33
2023-04-24T06:47:14.768Z,40.42
2023-04-24T06:49:42.173Z,39.67
2023-04-24T06:52:09.597Z,40.28
2023-04-24T06:54:36.697Z,32.50
2023-04-24T06:57:04.459Z,36.90
2023-04-24T06:59:31.770Z,34.85
2023-04-24T07:01:59.174Z,32.75
2023-04-24T07:04:26.787Z,30.58
2023-04-24T07:06:57.017Z,26.08
2023-04-24T07:09:26.311Z,26.77
2023-04-24T07:11:54.404Z,30.58
2023-04-24T07:14:21.868Z,22.88
2023-04-24T07:16:48.940Z,27.48
2023-04-24T07:19:16.115Z,24.23
2023-04-24T07:21:43.118Z,28.77
2023-04-24T07:24:11.913Z,28.85
2023-04-24T07:26:40.393Z,22.13
2023-04-24T07:29:08.107Z,17.85
2023-04-24T07:31:35.175Z,22.25
2023-04-24T07:34:02.514Z,18.42
2023-04-24T07:36:29.530Z,19.88
2023-04-24T07:38:57.749Z,15.27
2023-04-24T07:41:25.534Z,19.02
2023-04-24T07:43:54.710Z,13.90
2023-04-24T07:46:22.244Z,17.70
2023-04-24T07:48:58.548Z,17.65
2023-04-24T07:51:29.066Z,13.98
2023-04-24T07:53:56.314Z,19.52
2023-04-24T07:56:23.457Z,19.25
2023-04-24T07:58:50.400Z,16.55
2023-04-24T08:01:17.582Z,13.25
2023-04-24T08:03:44.689Z,16.02
2023-04-24T08:06:11.873Z,15.20
2023-04-24T08:08:38.911Z,16.17
2023-04-24T08:11:05.812Z,21.95
2023-04-24T08:13:32.933Z,13.95
2023-04-24T08:15:59.861Z,16.08
2023-04-24T08:18:27.429Z,16.38
2023-04-24T08:20:54.547Z,21.75
2023-04-24T08:23:21.511Z,27.17
2023-04-24T08:25:48.648Z,19.52
2023-04-24T08:28:21.167Z,24.08
2023-04-24T08:30:48.809Z,21.15
2023-04-24T08:33:16.253Z,25.30
2023-04-24T08:35:43.286Z,23.60
2023-04-24T08:38:10.303Z,19.05
2023-04-24T08:40:38.358Z,28.92
2023-04-24T08:43:05.326Z,23.63
2023-04-24T08:45:33.748Z,26.02
2023-04-24T08:48:01.504Z,17.92
2023-04-24T08:50:29.880Z,21.48
2023-04-24T08:52:58.068Z,17.98
2023-04-24T08:55:26.316Z,12.45
2023-04-24T08:57:54.265Z,25.13
2023-04-24T09:00:24.221Z,26.25
2023-04-24T09:02:52.257Z,16.35
2023-04-24T09:05:39.530Z,16.77
2023-04-24T09:08:08.379Z,20.10
2023-04-24T09:10:36.454Z,12.63
2023-04-24T09:13:03.542Z,13.93
2023-04-24T09:15:30.914Z,19.70
2023-04-24T09:17:57.978Z,13.52
2023-04-24T09:20:25.017Z,17.77
2023-04-24T09:22:56.517Z,12.80
2023-04-24T09:25:23.600Z,22.50
2023-04-24T09:27:54.737Z,16.13
2023-04-24T09:30:24.729Z,18.25
2023-04-24T09:33:16.751Z,23.10
2023-04-24T09:35:50.331Z,17.25
2023-04-24T09:38:17.299Z,17.85
2023-04-24T09:40:44.830Z,15.93
2023-04-24T09:43:12.907Z,19.23
2023-04-24T09:45:40.807Z,19.67
2023-04-24T09:48:11.443Z,17.30
2023-04-24T09:50:38.420Z,16.70
2023-04-24T09:53:09.878Z,13.35
2023-04-24T09:55:43.215Z,16.40
2023-04-24T09:58:10.336Z,19.52
2023-04-24T10:00:41.261Z,17.88
2023-04-24T10:03:09.249Z,16.15
2023-04-24T10:05:38.203Z,16.23
2023-04-24T10:08:07.377Z,8.43
2023-04-24T10:10:37.609Z,9.82
2023-04-24T10:13:05.830Z,7.05
2023-04-24T10:15:33.610Z,7.45
2023-04-24T10:18:00.957Z,11.82
2023-04-24T10:20:32.589Z,8.90
2023-04-24T10:23:05.827Z,12.05
2023-04-24T10:25:35.726Z,12.23
2023-04-24T10:28:04.556Z,8.50
2023-04-24T10:30:36.350Z,4.28
2023-04-24T10:33:05.513Z,10.57
2023-04-24T10:35:39.467Z,11.18
2023-04-24T10:38:17.900Z,12.90
2023-04-24T10:40:45.398Z,19.85
2023-04-24T10:43:17.600Z,8.68
2023-04-24T10:46:02.220Z,10.65
2023-04-24T10:48:29.163Z,9.50
2023-04-24T10:50:56.007Z,9.48
2023-04-24T10:53:24.606Z,12.18
2023-04-24T10:55:53.460Z,7.00
2023-04-24T10:58:24.833Z,5.28
2023-04-24T11:01:00.064Z,8.32
2023-04-24T11:03:32.462Z,9.43
2023-04-24T11:06:09.981Z,10.15
2023-04-24T11:08:45.200Z,8.63
2023-04-24T11:11:18.089Z,6.57
2023-04-24T11:13:57.695Z,5.93
2023-04-24T11:16:24.825Z,6.78
2023-04-24T11:18:56.670Z,12.07
2023-04-24T11:21:24.067Z,6.63
2023-04-24T11:23:51.792Z,7.63
2023-04-24T11:26:22.601Z,4.80
2023-04-24T11:28:50.792Z,5.47
2023-04-24T11:31:49.744Z,9.82
2023-04-24T11:34:17.467Z,8.30
2023-04-24T11:36:45.250Z,6.72
2023-04-24T11:39:12.644Z,3.13
2023-04-24T11:41:39.712Z,9.05
2023-04-24T11:44:10.222Z,6.82
2023-04-24T11:46:39.098Z,5.38
2023-04-24T11:49:06.695Z,7.50
2023-04-24T11:51:43.880Z,6.85
2023-04-24T11:54:15.231Z,19.10
2023-04-24T11:56:47.440Z,9.13
2023-04-24T11:59:14.491Z,6.88
2023-04-24T12:01:48.480Z,11.45
2023-04-24T12:04:16.753Z,13.05
2023-04-24T12:07:03.927Z,11.40
2023-04-24T12:09:41.709Z,6.65
2023-04-24T12:12:09.154Z,7.20
2023-04-24T12:14:48.181Z,6.68
2023-04-24T12:17:15.319Z,6.40
2023-04-24T12:19:49.534Z,5.72
2023-04-24T12:22:16.494Z,3.78
2023-04-24T12:25:04.456Z,7.80
2023-04-24T12:27:33.209Z,5.40
2023-04-24T12:30:01.671Z,7.13
2023-04-24T12:32:28.974Z,5.05
2023-04-24T12:34:57.498Z,11.15
2023-04-24T12:37:28.081Z,7.50
2023-04-24T12:40:01.883Z,11.90
2023-04-24T12:42:30.576Z,6.30
2023-04-24T12:45:30.885Z,9.15
2023-04-24T12:47:57.812Z,11.13
2023-04-24T12:50:24.822Z,8.00
2023-04-24T12:52:51.717Z,6.15
2023-04-24T12:55:18.666Z,13.40
2023-04-24T12:57:45.604Z,8.30
2023-04-24T13:00:19.448Z,9.23
2023-04-24T13:02:47.093Z,4.90
2023-04-24T13:05:14.880Z,7.82
2023-04-24T13:07:41.831Z,7.70
2023-04-24T13:10:09.250Z,6.65
2023-04-24T13:12:36.335Z,6.38
2023-04-24T13:15:03.303Z,6.15
2023-04-24T13:17:30.343Z,6.30
2023-04-24T13:19:57.273Z,9.27
2023-04-24T13:22:24.215Z,8.38
2023-04-24T13:24:51.133Z,4.82
2023-04-24T13:27:18.904Z,5.63
2023-04-24T13:29:46.429Z,4.07
2023-04-24T13:32:13.365Z,5.38
2023-04-24T13:34:40.385Z,3.15
2023-04-24T13:37:09.065Z,6.82
2023-04-24T13:39:36.393Z,7.50
2023-04-24T13:42:04.819Z,6.75
2023-04-24T13:44:32.345Z,4.18
2023-04-24T13:47:00.055Z,7.10
2023-04-24T13:49:27.605Z,5.38
2023-04-24T13:51:56.338Z,8.55
2023-04-24T13:54:26.898Z,5.68
2023-04-24T13:56:54.335Z,5.65
2023-04-24T13:59:22.566Z,5.28
2023-04-24T14:01:49.764Z,5.13
2023-04-24T14:04:17.138Z,5.57
2023-04-24T14:06:44.968Z,4.72
2023-04-24T14:09:11.825Z,8.75
2023-04-24T14:11:38.953Z,6.05
2023-04-24T14:14:06.611Z,4.95
2023-04-24T14:16:33.711Z,6.40
2023-04-24T14:19:00.658Z,5.22
2023-04-24T14:21:27.613Z,6.95
2023-04-24T14:23:54.402Z,3.70
2023-04-24T14:26:21.539Z,3.55
2023-04-24T14:28:48.334Z,9.45
2023-04-24T14:31:15.343Z,6.82
2023-04-24T14:33:42.363Z,3.67
2023-04-24T14:36:09.284Z,6.65
2023-04-24T14:38:36.191Z,4.25
2023-04-24T14:41:10.591Z,4.03
2023-04-24T14:43:40.100Z,5.72
2023-04-24T14:46:07.024Z,4.45
2023-04-24T14:48:33.904Z,5.55
2023-04-24T14:51:02.295Z,5.78
2023-04-24T14:53:29.284Z,4.82
2023-04-24T14:55:56.151Z,3.30
2023-04-24T14:58:23.181Z,5.95
2023-04-24T15:00:53.009Z,4.97
2023-04-24T15:03:22.922Z,7.07
2023-04-24T15:05:50.288Z,5.30
2023-04-24T15:08:17.294Z,6.05
2023-04-24T15:10:44.255Z,4.30
2023-04-24T15:13:11.150Z,6.65
2023-04-24T15:15:38.242Z,8.90
2023-04-24T15:18:06.566Z,6.25
2023-04-24T15:20:33.550Z,5.18
2023-04-24T15:23:01.471Z,5.30
2023-04-24T15:25:29.491Z,2.85
2023-04-24T15:27:56.443Z,5.85
2023-04-24T15:30:23.343Z,4.20
2023-04-24T15:32:50.499Z,8.27
2023-04-24T15:35:17.701Z,4.43
2023-04-24T15:37:44.883Z,4.88
2023-04-24T15:40:14.301Z,5.50
2023-04-24T15:42:42.167Z,6.32
2023-04-24T15:45:10.323Z,6.45
2023-04-24T15:47:37.370Z,7.30
2023-04-24T15:50:05.328Z,3.83
2023-04-24T15:52:32.299Z,5.18
2023-04-24T15:54:59.184Z,6.90
2023-04-24T15:57:26.436Z,8.25
2023-04-24T15:59:53.722Z,4.47
2023-04-24T16:02:21.378Z,3.85
2023-04-24T16:04:49.758Z,7.50
2023-04-24T16:07:20.248Z,4.65
2023-04-24T16:09:47.507Z,5.80
2023-04-24T16:12:14.904Z,8.18
2023-04-24T16:14:42.336Z,10.57
2023-04-24T16:17:09.464Z,8.43
2023-04-24T16:19:36.484Z,10.90
2023-04-24T16:22:04.279Z,11.82
2023-04-24T16:24:31.417Z,13.48
2023-04-24T16:26:58.410Z,10.50
2023-04-24T16:29:25.516Z,8.10
2023-04-24T16:31:53.318Z,11.70
2023-04-24T16:34:20.273Z,7.28
2023-04-24T16:36:48.257Z,9.38
2023-04-24T16:39:15.371Z,9.63
2023-04-24T16:41:42.347Z,13.23
2023-04-24T16:44:09.185Z,9.05
2023-04-24T16:46:36.138Z,8.90
2023-04-24T16:49:03.275Z,9.32
2023-04-24T16:51:30.217Z,10.90
2023-04-24T16:53:57.109Z,10.68
2023-04-24T16:56:24.134Z,6.90
2023-04-24T16:58:51.356Z,6.72
2023-04-24T17:01:18.353Z,10.93
2023-04-24T17:03:46.696Z,11.93
2023-04-24T17:06:13.698Z,5.95
2023-04-24T17:08:40.606Z,7.78
2023-04-24T17:11:07.466Z,6.63
2023-04-24T17:13:34.363Z,11.90
2023-04-24T17:16:02.328Z,13.13
2023-04-24T17:18:29.277Z,10.25
2023-04-24T17:20:56.127Z,13.10
2023-04-24T17:23:23.531Z,12.70
2023-04-24T17:25:50.447Z,14.95
2023-04-24T17:28:27.321Z,7.25
2023-04-24T17:30:58.186Z,7.63
2023-04-24T17:33:30.666Z,10.23
2023-04-24T17:36:03.754Z,11.18
2023-04-24T17:38:31.110Z,11.32
2023-04-24T17:40:58.560Z,8.90
2023-04-24T17:43:26.354Z,12.73
2023-04-24T17:45:57.011Z,13.55
2023-04-24T17:48:24.021Z,9.13
2023-04-24T17:50:51.795Z,12.55
2023-04-24T17:53:19.035Z,8.43
2023-04-24T17:55:49.081Z,14.23
2023-04-24T17:58:16.067Z,9.63
2023-04-24T18:00:43.050Z,10.38
2023-04-24T18:03:10.471Z,14.98
2023-04-24T18:05:38.792Z,13.32
2023-04-24T18:08:07.576Z,11.85
2023-04-24T18:10:37.844Z,11.80
2023-04-24T18:13:05.410Z,9.63
2023-04-24T18:15:32.403Z,11.80
2023-04-24T18:17:59.879Z,14.00
2023-04-24T18:20:27.382Z,15.10
2023-04-24T18:22:54.606Z,11.80
2023-04-24T18:25:26.634Z,12.77
2023-04-24T18:27:54.669Z,15.48
2023-04-24T18:30:22.798Z,11.32
2023-04-24T18:32:50.744Z,10.38
2023-04-24T18:35:19.141Z,13.23
2023-04-24T18:37:46.466Z,11.68
2023-04-24T18:40:14.764Z,16.15
2023-04-24T18:42:42.301Z,12.88
2023-04-24T18:45:11.342Z,15.05
2023-04-24T18:47:40.085Z,15.82
2023-04-24T18:50:07.582Z,13.07
2023-04-24T18:52:34.511Z,16.33
2023-04-24T18:55:02.111Z,16.65
2023-04-24T18:57:29.822Z,14.40
2023-04-24T18:59:56.674Z,10.82
2023-04-24T19:02:23.665Z,14.52
2023-04-24T19:04:50.623Z,21.83
2023-04-24T19:07:19.380Z,13.05
2023-04-24T19:09:46.375Z,9.73
2023-04-24T19:12:13.355Z,14.20
2023-04-24T19:14:40.405Z,13.63
2023-04-24T19:17:10.030Z,12.05
2023-04-24T19:19:37.099Z,10.73
2023-04-24T19:22:04.135Z,15.45
2023-04-24T19:24:33.159Z,10.68
2023-04-24T19:27:00.025Z,12.27
2023-04-24T19:29:27.200Z,19.15
2023-04-24T19:31:54.689Z,16.85
2023-04-24T19:34:21.598Z,16.58
2023-04-24T19:36:48.729Z,11.18
2023-04-24T19:39:16.341Z,22.52
2023-04-24T19:41:43.202Z,15.30
2023-04-24T19:44:10.376Z,16.60
2023-04-24T19:46:37.408Z,26.45
2023-04-24T19:49:04.434Z,22.88
2023-04-24T19:51:32.354Z,15.98
2023-04-24T19:53:59.872Z,15.68
2023-04-24T19:56:27.029Z,22.45
2023-04-24T19:58:53.879Z,20.17
2023-04-24T20:01:21.074Z,22.45
2023-04-24T20:03:48.034Z,23.70
2023-04-24T20:06:14.959Z,25.77
2023-04-24T20:08:42.950Z,27.65
2023-04-24T20:11:10.123Z,21.10
2023-04-24T20:13:37.014Z,20.90
2023-04-24T20:16:04.637Z,21.52
2023-04-24T20:18:31.552Z,19.73
2023-04-24T20:20:59.934Z,18.55
2023-04-24T20:23:27.318Z,15.90
2023-04-24T20:25:58.239Z,23.50
2023-04-24T20:28:26.370Z,18.77
2023-04-24T20:30:53.884Z,20.80
2023-04-24T20:33:21.527Z,25.85
2023-04-24T20:35:49.330Z,21.08
2023-04-24T20:38:18.471Z,19.05
2023-04-24T20:40:57.121Z,24.65
2023-04-24T20:43:28.760Z,20.67
2023-04-24T20:45:58.346Z,18.67
2023-04-24T20:48:26.460Z,22.85
2023-04-24T20:50:56.659Z,28.50
2023-04-24T20:53:23.647Z,23.35
2023-04-24T20:55:50.886Z,23.67
2023-04-24T20:58:23.909Z,22.45
2023-04-24T21:00:51.847Z,25.88
2023-04-24T21:03:18.984Z,24.80
2023-04-24T21:05:46.022Z,18.02
2023-04-24T21:08:13.167Z,22.70
2023-04-24T21:10:40.383Z,24.23
2023-04-24T21:13:07.299Z,22.98
2023-04-24T21:15:34.251Z,18.58
2023-04-24T21:18:01.995Z,23.83
2023-04-24T21:20:29.021Z,21.33
2023-04-24T21:22:55.879Z,24.33
2023-04-24T21:25:22.808Z,21.00
2023-04-24T21:27:49.729Z,26.98
2023-04-24T21:30:16.808Z,20.00
2023-04-24T21:32:43.750Z,23.85
2023-04-24T21:35:10.744Z,18.02
2023-04-24T21:37:39.351Z,25.60
2023-04-24T21:40:07.712Z,19.55
2023-04-24T21:42:34.756Z,22.88
2023-04-24T21:45:01.744Z,24.85
2023-04-24T21:47:28.623Z,19.48
2023-04-24T21:49:55.499Z,17.90
2023-04-24T21:52:22.455Z,19.08
2023-04-24T21:54:49.357Z,14.75
2023-04-24T21:57:16.380Z,18.23
2023-04-24T21:59:43.473Z,21.38
2023-04-24T22:02:10.613Z,22.60
2023-04-24T22:04:37.847Z,21.98
2023-04-24T22:07:04.959Z,20.88
2023-04-24T22:09:31.763Z,23.92
2023-04-24T22:11:58.676Z,17.23
2023-04-24T22:14:26.201Z,20.83
2023-04-24T22:16:53.088Z,28.38
2023-04-24T22:19:20.046Z,21.92
2023-04-24T22:21:47.039Z,22.35
2023-04-24T22:24:14.277Z,15.88
2023-04-24T22:26:41.223Z,16.85
2023-04-24T22:29:08.088Z,21.23
2023-04-24T22:31:34.971Z,22.88
2023-04-24T22:34:01.951Z,22.58
2023-04-24T22:36:28.805Z,24.67
2023-04-24T22:38:55.860Z,20.38
2023-04-24T22:41:22.716Z,26.20
2023-04-24T22:43:50.287Z,25.13
2023-04-24T22:46:17.967Z,17.42
2023-04-24T22:48:45.706Z,18.38
2023-04-24T22:51:12.664Z,22.75
2023-04-24T22:53:39.470Z,21.13
2023-04-24T22:56:06.815Z,21.40
2023-04-24T22:58:33.713Z,22.42
2023-04-24T23:01:00.979Z,27.98
2023-04-24T23:03:28.023Z,25.42
2023-04-24T23:05:55.271Z,22.58
2023-04-24T23:08:22.074Z,20.13
2023-04-24T23:10:48.933Z,21.33
2023-04-24T23:13:16.349Z,25.40
2023-04-24T23:15:43.239Z,19.60
2023-04-24T23:18:10.475Z,23.67
2023-04-24T23:20:38.663Z,26.77
2023-04-24T23:23:05.877Z,23.17
2023-04-24T23:25:33.150Z,23.10
2023-04-24T23:27:59.970Z,19.55
2023-04-24T23:30:26.971Z,23.85
2023-04-24T23:32:53.897Z,22.42
2023-04-24T23:35:20.783Z,21.27
2023-04-24T23:37:48.314Z,18.05
2023-04-24T23:40:15.344Z,17.13
2023-04-24T23:42:42.296Z,22.40
2023-04-24T23:45:11.073Z,18.75
2023-04-24T23:47:38.363Z,21.10
2023-04-24T23:50:05.840Z,29.83
2023-04-24T23:52:32.880Z,22.40
2023-04-24T23:54:59.993Z,15.80
2023-04-24T23:57:26.930Z,26.35
2023-04-24T23:59:53.779Z,22.95
